Río Grande, Puerto Rico

6:26 PM AST on February 05, 2016 (GMT -0400)
Ciudad Jardin | | Change Station
CLOSE
Current Station
Personal Weather Station
Location: Carolina, PR
Elevation: 10 ft
Nearby Weather Stations

Elev 10 ft 18.37 °N, 65.93 °W | Updated 6 seconds ago

Light Rain
Light Rain
72.3 °F
Feels Like 72.3 °F
N
0.0
Wind Variable Wind from West
Gusts 0.0 mph

Today
High -- | Low -- °F
--% Chance of Precip.
Yesterday
High -- | Low -- °F
Precip. -- in
Pressure 29.98 in
Visibility 8.0 miles
Clouds Few 2800 ft
Scattered Clouds 3700 ft
Mostly Cloudy 5500 ft
Dew Point 70 °F
Humidity 92%
Rainfall 0.15 in
Snow Depth Not available.
6:55 AM 6:19 PM
Waning Crescent, 9% visible
METAR TJSJ 052156Z 35003KT 8SM -RA FEW028 SCT037 BKN055 23/21 A2998 RMK AO2 SLP151 P0025 T02280206
Pressure 29.98 in
Visibility 8.0 miles
Clouds Few 2800 ft
Scattered Clouds 3700 ft
Mostly Cloudy 5500 ft
Dew Point 70 °F
Humidity 92%
Rainfall 0.15 in
Snow Depth Not available.
6:55 AM 6:19 PM
Waning Crescent, 9% visible
METAR TJSJ 052156Z 35003KT 8SM -RA FEW028 SCT037 BKN055 23/21 A2998 RMK AO2 SLP151 P0025 T02280206

10-Day Weather Forecast

Almanac

Astronomy

Feb. 05, 2016 Rise Set
Actual Time
Civil Twilight
Nautical Twilight
Astronomical Twilight
Moon
Length of Visible Light
Length of Day
Tomorrow will be .
, % of the Moon is Illuminated

Today's Extremes

Country Highs Country Lows

Community

WunderPhotos

Upload Photos

1,890,878 photos uploaded!

WunderBlog® & News

Nearby

Air Quality

  Air Quality AQ Index Pollutant
Not available.

Snow Depth

Station Depth Elevation

Earthquake Activity

City Distance Mag. Time & Date
Minimum magnitude displayed is 2.5.

Coastal Water Temperatures

Place Temperature

Stations

Nearby Weather Stations

Station Location Temp. Windchill Dew Point Humidity Wind Precip. Elev Updated Type